This is the latest recevied weather packets stored in our database for station/object K0BL. If no packets are shown the sender has not sent any weather packets the latest 10 day(s).
| Time | Temp. | Humidity | Pressure | Rain* | Wind** | Luminosity | Snow |
|---|---|---|---|---|---|---|---|
| 1777683840 | 11.67° C | 56% | 1014.7 hPa | 0 mm | - | 4 W/m² | - |
| 1777683241 | 12.22° C | 55% | 1014.5 hPa | 0 mm | - | 10 W/m² | - |
| 1777682941 | 12.22° C | 54% | 1014.5 hPa | 0 mm | - | 14 W/m² | - |
| 1777681435 | 12.78° C | 50% | 1014.2 hPa | 0 mm | - | 33 W/m² | - |
| 1777679934 | 13.89° C | 49% | 1014.1 hPa | 0 mm | - | 89 W/m² | - |
| 1777677830 | 13.89° C | 45% | 1013.9 hPa | 0 mm | - | 82 W/m² | - |
| 1777676930 | 14.44° C | 46% | 1013.8 hPa | 0 mm | - | 251 W/m² | - |
| 1777676330 | 14.44° C | 48% | 1013.9 hPa | 0 mm | - | 165 W/m² | - |
| 1777674532 | 14.44° C | 48% | 1013.9 hPa | 0 mm | - | 134 W/m² | - |
| 1777672722 | 13.89° C | 52% | 1013.9 hPa | 0 mm | - | 170 W/m² | - |
| 1777669723 | 15° C | 47% | 1013.8 hPa | 0 mm | - | 283 W/m² | - |
| 1777668817 | 16.11° C | 47% | 1013.9 hPa | 0 mm | - | 658 W/m² | - |
| 1777666118 | 16.11° C | 49% | 1014.1 hPa | 0 mm | - | 790 W/m² | - |
| 1777664312 | 16.67° C | 41% | 1013.7 hPa | 0 mm | - | 352 W/m² | - |
| 1777664011 | 16.11° C | 42% | 1013.7 hPa | 0 mm | - | 408 W/m² | - |
| 1777660710 | 16.67° C | 41% | 1013.7 hPa | 0 mm | - | 964 W/m² | - |
| 1777660406 | 16.11° C | 45% | 1013.7 hPa | 0 mm | - | 1023 W/m² | - |
| 1777659804 | 17.22° C | 41% | 1013.6 hPa | 0 mm | - | 351 W/m² | - |
| 1777659504 | 17.22° C | 41% | 1013.7 hPa | 0 mm | - | 1021 W/m² | - |
| 1777658006 | 15.56° C | 43% | 1013.8 hPa | 0 mm | - | 1017 W/m² | - |
| 1777655602 | 16.11° C | 42% | 1014.2 hPa | 0 mm | - | 971 W/m² | - |
| 1777654402 | 15.56° C | 43% | 1014.2 hPa | 0 mm | - | 935 W/m² | - |
| 1777652296 | 14.44° C | 47% | 1014.4 hPa | 0 mm | - | 810 W/m² | - |
| 1777651694 | 14.44° C | 45% | 1014.4 hPa | 0 mm | - | 791 W/m² | - |
| 1777651394 | 14.44° C | 45% | 1014.4 hPa | 0 mm | - | 777 W/m² | - |
* Rain latest hour (hover to see other rain measurements)
** Current wind speed in m/s (hover to see current wind gust speed)